Time;durP1;ratioP1;P1;durP2;ratioP2;P2;SDS_P1;SDS_P2;PMS_P1;PMS_P2;Temp;Humidity;BMP_temperature;BMP_pressure;BME280_temperature;BME280_humidity;BME280_pressure;Samples;Min_cycle;Max_cycle;Signal;HPM_P1;HPM_P2
2020/12/09 00:01:08;;;;;;;1.70;1.13;;;7.20;67.40;;;;;;6254188;28;20063;-74
2020/12/09 00:04:11;;;;;;;2.83;1.45;;;7.20;67.40;;;;;;6242245;28;20044;-74
2020/12/09 00:07:12;;;;;;;2.58;1.63;;;7.10;67.50;;;;;;6258935;28;20033;-74
2020/12/09 00:10:13;;;;;;;1.35;0.90;;;7.10;67.40;;;;;;6229925;28;20379;-74
2020/12/09 00:13:14;;;;;;;1.98;1.42;;;7.10;67.40;;;;;;6253735;28;20137;-74
2020/12/09 00:16:17;;;;;;;2.10;1.20;;;7.10;67.40;;;;;;6245714;28;20045;-74
2020/12/09 00:19:18;;;;;;;3.17;1.58;;;7.00;67.30;;;;;;6257184;28;20060;-73
2020/12/09 00:22:19;;;;;;;2.88;1.33;;;7.00;67.40;;;;;;6259199;28;20331;-74
2020/12/09 00:25:20;;;;;;;2.15;1.10;;;7.00;67.60;;;;;;6259553;28;20029;-74
2020/12/09 00:28:21;;;;;;;1.52;1.17;;;7.00;67.50;;;;;;6245702;28;20025;-72
2020/12/09 00:31:29;;;;;;;4.10;1.60;;;7.00;67.20;;;;;;6257546;28;20133;-75
2020/12/09 00:34:30;;;;;;;;;;;6.90;67.20;;;;;;6241440;28;20689;-74
2020/12/09 00:37:33;;;;;;;2.15;1.55;;;7.00;67.20;;;;;;6233575;28;19968;-75
2020/12/09 00:40:35;;;;;;;1.88;1.02;;;7.00;67.10;;;;;;6240133;28;20204;-75
2020/12/09 00:43:36;;;;;;;3.00;1.85;;;7.00;67.30;;;;;;6252740;28;20045;-75
2020/12/09 00:46:36;;;;;;;2.25;1.50;;;6.90;67.20;;;;;;6259862;28;20029;-74
2020/12/09 00:53:07;;;;;;;1.25;0.52;;;6.90;67.20;;;;;;6228849;28;20391;-74
2020/12/09 00:56:09;;;;;;;1.17;0.82;;;6.90;67.20;;;;;;6241505;28;20094;-74
2020/12/09 00:59:12;;;;;;;1.90;1.55;;;6.90;67.20;;;;;;6239679;28;20053;-73
2020/12/09 01:02:13;;;;;;;2.13;1.13;;;6.80;67.20;;;;;;6222912;28;20033;-74
2020/12/09 01:05:15;;;;;;;1.83;1.13;;;6.80;67.20;;;;;;6216831;28;20476;-74
2020/12/09 01:08:15;;;;;;;1.63;0.88;;;6.80;67.20;;;;;;6234587;28;20140;-74
2020/12/09 01:11:18;;;;;;;3.10;1.33;;;6.80;67.00;;;;;;6228497;28;20528;-74
2020/12/09 01:14:18;;;;;;;1.40;0.82;;;6.80;67.00;;;;;;6232974;28;20116;-74
2020/12/09 01:17:19;;;;;;;1.15;0.90;;;6.90;67.10;;;;;;6231648;28;20033;-74
2020/12/09 01:20:22;;;;;;;2.53;1.10;;;6.90;66.80;;;;;;6233459;28;20458;-74
2020/12/09 01:23:23;;;;;;;1.67;1.17;;;6.90;66.60;;;;;;6228099;28;20538;-75
2020/12/09 01:26:24;;;;;;;0.70;0.65;;;6.90;66.50;;;;;;6227926;28;20136;-74
2020/12/09 01:29:25;;;;;;;2.58;1.42;;;6.90;66.50;;;;;;6230373;28;20056;-75
2020/12/09 01:32:26;;;;;;;1.52;1.13;;;7.00;66.40;;;;;;6228584;28;20091;-74
2020/12/09 01:35:27;;;;;;;2.13;1.33;;;7.10;66.10;;;;;;6228772;28;20458;-74
2020/12/09 01:38:28;;;;;;;0.82;0.77;;;7.10;66.50;;;;;;6215584;28;20139;-74
2020/12/09 01:41:29;;;;;;;1.25;0.88;;;7.10;65.20;;;;;;6217873;28;20045;-74
2020/12/09 01:44:30;;;;;;;1.52;0.70;;;7.10;65.00;;;;;;6231260;28;20071;-75
2020/12/09 01:47:31;;;;;;;1.73;0.90;;;7.20;65.00;;;;;;6245705;28;20034;-75
2020/12/09 01:50:32;;;;;;;0.35;0.35;;;7.20;64.80;;;;;;6228504;28;20371;-75
2020/12/09 01:53:33;;;;;;;1.05;0.80;;;7.20;64.80;;;;;;6232624;28;20124;-75
2020/12/09 01:56:35;;;;;;;1.70;1.08;;;7.30;64.80;;;;;;6215966;28;20396;-74
2020/12/09 01:59:37;;;;;;;1.63;1.00;;;7.30;64.60;;;;;;6235481;28;20112;-74
2020/12/09 02:02:38;;;;;;;1.15;0.98;;;7.40;64.40;;;;;;6224184;28;20040;-74
2020/12/09 02:05:39;;;;;;;1.50;1.00;;;7.40;64.30;;;;;;6229780;28;20373;-74
2020/12/09 02:08:40;;;;;;;1.85;1.33;;;7.40;64.10;;;;;;6217704;28;20041;-74
2020/12/09 02:11:40;;;;;;;1.80;0.90;;;7.40;64.00;;;;;;6219004;28;20030;-74
2020/12/09 02:14:41;;;;;;;2.17;1.30;;;7.40;63.80;;;;;;6227198;28;20049;-74
2020/12/09 02:17:42;;;;;;;2.58;1.17;;;7.40;64.00;;;;;;6237214;28;20047;-73
2020/12/09 02:20:43;;;;;;;1.67;0.98;;;7.40;64.00;;;;;;6254587;28;20373;-74
2020/12/09 02:23:44;;;;;;;1.42;1.05;;;7.40;64.00;;;;;;6254936;28;20041;-74
2020/12/09 02:26:48;;;;;;;3.20;1.67;;;7.40;64.00;;;;;;6244171;28;20045;-74
2020/12/09 02:29:49;;;;;;;1.08;0.90;;;7.40;64.10;;;;;;6246311;28;20065;-73
2020/12/09 02:32:50;;;;;;;2.03;1.05;;;7.30;64.10;;;;;;6242261;28;20041;-73
2020/12/09 02:35:51;;;;;;;2.38;1.30;;;7.30;64.20;;;;;;6241126;28;20103;-73
2020/12/09 02:38:51;;;;;;;2.47;0.82;;;7.30;64.20;;;;;;6255626;28;20512;-73
2020/12/09 02:41:52;;;;;;;2.40;1.17;;;7.30;64.20;;;;;;6259210;28;20125;-73
2020/12/09 02:44:53;;;;;;;4.93;1.00;;;7.30;64.30;;;;;;6255996;28;20073;-73
2020/12/09 02:47:54;;;;;;;2.38;1.42;;;7.30;64.50;;;;;;6240571;28;20045;-74
2020/12/09 02:50:56;;;;;;;1.67;1.25;;;7.40;64.50;;;;;;6262300;28;20052;-74
2020/12/09 02:53:57;;;;;;;1.52;0.73;;;7.30;64.30;;;;;;6259536;28;20164;-73
2020/12/09 02:56:58;;;;;;;2.17;1.38;;;7.10;64.40;;;;;;6259938;28;20068;-72
2020/12/09 02:59:59;;;;;;;0.88;0.85;;;7.20;64.60;;;;;;6266113;28;20033;-74
2020/12/09 03:03:00;;;;;;;2.88;2.03;;;7.20;64.80;;;;;;6261958;28;20466;-73
2020/12/09 03:06:01;;;;;;;2.90;1.00;;;7.30;64.80;;;;;;6256571;28;20123;-74
2020/12/09 03:09:02;;;;;;;2.70;1.52;;;7.20;64.80;;;;;;6245710;28;20080;-72
2020/12/09 03:12:03;;;;;;;2.92;1.33;;;7.20;64.70;;;;;;6223776;28;20124;-73
2020/12/09 03:15:04;;;;;;;2.05;1.05;;;7.20;64.70;;;;;;6232152;28;20385;-73
2020/12/09 03:18:05;;;;;;;1.73;1.25;;;7.20;64.90;;;;;;6232024;28;20066;-73
2020/12/09 03:21:06;;;;;;;1.63;1.08;;;7.20;65.10;;;;;;6236848;28;20116;-74
2020/12/09 03:24:07;;;;;;;2.55;1.38;;;7.10;65.10;;;;;;6222769;28;20374;-74
2020/12/09 03:27:10;;;;;;;3.17;1.25;;;7.10;65.10;;;;;;6219303;28;20034;-74
2020/12/09 03:30:12;;;;;;;4.32;1.92;;;7.00;65.10;;;;;;6231970;28;20065;-74
2020/12/09 03:33:13;;;;;;;1.77;1.10;;;7.10;65.20;;;;;;6233011;28;20390;-74
2020/12/09 03:36:14;;;;;;;1.88;1.10;;;7.10;65.20;;;;;;6234122;28;20029;-73
2020/12/09 03:39:14;;;;;;;2.28;1.55;;;7.10;65.20;;;;;;6236885;28;20057;-74
2020/12/09 03:42:15;;;;;;;2.08;1.55;;;7.10;65.30;;;;;;6232885;28;20112;-74
2020/12/09 03:45:16;;;;;;;3.53;1.80;;;7.20;65.30;;;;;;6232778;28;20126;-73
2020/12/09 03:48:17;;;;;;;3.10;1.00;;;7.20;65.30;;;;;;6232750;28;20095;-74
2020/12/09 03:51:19;;;;;;;1.95;0.77;;;7.20;65.30;;;;;;6235030;28;20079;-74
2020/12/09 03:54:20;;;;;;;0.60;0.50;;;7.20;65.10;;;;;;6232225;28;20056;-73
2020/12/09 03:57:20;;;;;;;3.28;1.88;;;7.10;65.00;;;;;;6231400;28;20042;-73
2020/12/09 04:00:23;;;;;;;3.03;2.08;;;7.10;65.20;;;;;;6231344;28;20408;-73
2020/12/09 04:03:23;;;;;;;8.07;2.60;;;7.10;65.40;;;;;;6217661;28;20045;-72
2020/12/09 04:06:25;;;;;;;2.65;1.75;;;7.00;65.70;;;;;;6234484;28;20128;-74
2020/12/09 04:09:26;;;;;;;4.82;2.45;;;7.00;65.90;;;;;;6229454;28;20432;-73
2020/12/09 04:12:28;;;;;;;4.32;2.60;;;7.00;65.90;;;;;;6233704;28;20029;-73
2020/12/09 04:15:29;;;;;;;4.07;2.47;;;7.00;66.10;;;;;;6255210;28;20025;-74
2020/12/09 04:18:30;;;;;;;4.70;1.70;;;7.00;65.90;;;;;;6246749;28;20117;-74
2020/12/09 04:21:31;;;;;;;4.75;2.60;;;7.00;65.70;;;;;;6241326;28;20033;-74
2020/12/09 04:24:32;;;;;;;2.92;1.60;;;7.00;65.80;;;;;;6257576;28;20036;-74
2020/12/09 04:27:33;;;;;;;6.03;3.25;;;7.00;65.90;;;;;;6253905;28;20483;-74
2020/12/09 04:30:33;;;;;;;2.10;1.05;;;7.00;66.10;;;;;;6239941;28;20033;-73
2020/12/09 04:33:34;;;;;;;4.05;1.90;;;7.00;66.30;;;;;;6234363;28;20040;-74
2020/12/09 04:36:36;;;;;;;7.78;2.78;;;6.90;66.40;;;;;;6247525;28;20148;-74
2020/12/09 04:39:37;;;;;;;6.03;2.72;;;6.90;66.40;;;;;;6258202;28;20087;-73
2020/12/09 04:42:38;;;;;;;6.32;3.10;;;6.90;66.70;;;;;;6238139;28;20126;-74
2020/12/09 04:45:39;;;;;;;3.75;1.67;;;6.80;66.80;;;;;;6257317;28;20041;-74
2020/12/09 04:48:43;;;;;;;3.13;1.77;;;6.80;66.90;;;;;;6258337;28;20074;-73
2020/12/09 04:52:20;;;;;;;4.13;2.42;;;6.80;67.10;;;;;;6254161;28;20060;-73
2020/12/09 04:55:26;;;;;;;4.05;1.50;;;6.70;67.10;;;;;;6191460;28;20038;-73
2020/12/09 04:58:43;;;;;;;5.00;2.28;;;6.80;67.10;;;;;;6172180;28;20042;-73
2020/12/09 05:02:04;;;;;;;4.32;2.33;;;6.80;66.90;;;;;;6187956;28;20360;-73
2020/12/09 05:05:05;;;;;;;5.35;2.72;;;6.80;66.90;;;;;;6205134;28;20459;-73
2020/12/09 05:08:13;;;;;;;5.13;2.85;;;6.80;66.90;;;;;;6205207;28;20041;-73
2020/12/09 05:11:15;;;;;;;4.30;2.47;;;6.80;66.80;;;;;;6199849;28;20030;-73
2020/12/09 05:14:16;;;;;;;5.22;2.20;;;6.80;66.70;;;;;;6214232;28;20470;-73
2020/12/09 05:17:19;;;;;;;2.95;1.88;;;6.80;66.60;;;;;;6211622;28;20061;-72
2020/12/09 05:20:30;;;;;;;4.93;2.30;;;6.90;66.60;;;;;;6210246;28;20061;-73
2020/12/09 05:23:33;;;;;;;5.68;2.22;;;6.90;66.40;;;;;;6209512;28;20038;-73
2020/12/09 05:26:38;;;;;;;3.17;1.67;;;6.90;66.40;;;;;;6193577;28;20038;-74
2020/12/09 05:29:49;;;;;;;5.68;2.67;;;6.90;66.30;;;;;;6202729;28;20029;-74
2020/12/09 05:32:54;;;;;;;7.65;2.72;;;6.90;66.20;;;;;;6252237;28;20061;-73
2020/12/09 05:36:02;;;;;;;5.57;3.10;;;6.90;66.10;;;;;;6255495;28;20030;-73
2020/12/09 05:39:06;;;;;;;2.80;1.88;;;6.80;66.00;;;;;;6258308;28;20564;-73
2020/12/09 05:42:14;;;;;;;6.97;2.92;;;6.80;66.10;;;;;;6255157;28;20526;-74
2020/12/09 05:45:15;;;;;;;5.68;2.28;;;6.80;66.20;;;;;;6254289;28;20037;-73
2020/12/09 05:48:24;;;;;;;5.88;3.40;;;6.70;66.20;;;;;;6255163;28;20044;-71
2020/12/09 05:51:25;;;;;;;;;;;6.80;66.30;;;;;;6254787;28;20497;-69
2020/12/09 05:54:26;;;;;;;4.45;2.95;;;6.80;66.30;;;;;;6252372;28;20231;-70
2020/12/09 05:57:27;;;;;;;5.15;3.08;;;6.80;66.00;;;;;;6257105;28;20034;-69
2020/12/09 06:00:27;;;;;;;6.32;2.83;;;6.80;66.20;;;;;;6227393;28;20049;-68
2020/12/09 06:03:29;;;;;;;9.23;2.85;;;6.80;66.10;;;;;;6233977;28;20374;-71
2020/12/09 06:06:32;;;;;;;5.75;2.05;;;6.80;66.20;;;;;;6239037;28;20037;-70
2020/12/09 06:09:33;;;;;;;5.72;2.78;;;6.80;66.00;;;;;;6249607;28;20409;-70
2020/12/09 06:12:54;;;;;;;7.97;3.05;;;6.80;65.90;;;;;;6255917;28;20048;-69
2020/12/09 06:15:55;;;;;;;6.70;3.30;;;6.80;66.00;;;;;;6259812;28;20052;-70
2020/12/09 06:18:56;;;;;;;5.20;2.72;;;6.80;66.10;;;;;;6255430;28;20049;-73
2020/12/09 06:21:59;;;;;;;7.68;3.17;;;6.80;66.10;;;;;;6260877;28;20113;-71
2020/12/09 06:25:07;;;;;;;8.43;3.47;;;6.80;66.00;;;;;;6259230;28;20129;-72
2020/12/09 06:28:09;;;;;;;;;;;6.80;66.20;;;;;;6235548;28;20033;-71
2020/12/09 06:31:21;;;;;;;5.00;2.47;;;6.80;66.10;;;;;;6260556;28;19913;-72
2020/12/09 06:34:22;;;;;;;7.05;3.78;;;6.90;65.90;;;;;;6252407;28;20036;-73
2020/12/09 06:37:23;;;;;;;4.10;2.50;;;6.90;65.80;;;;;;6255287;28;20055;-73
2020/12/09 06:40:24;;;;;;;7.80;3.35;;;6.90;65.60;;;;;;6254210;28;20167;-74
2020/12/09 06:43:25;;;;;;;6.53;3.33;;;6.90;65.50;;;;;;6257310;28;20048;-72
2020/12/09 06:46:43;;;;;;;6.25;3.30;;;7.00;65.50;;;;;;6260912;28;20041;-70
2020/12/09 06:49:45;;;;;;;5.45;2.50;;;7.00;65.40;;;;;;6255918;28;20032;-70
2020/12/09 06:52:46;;;;;;;4.65;2.58;;;7.00;65.20;;;;;;6248286;28;20038;-70
2020/12/09 06:55:49;;;;;;;6.82;3.13;;;7.00;65.20;;;;;;6241196;28;20090;-73
2020/12/09 06:58:49;;;;;;;6.30;2.83;;;7.00;64.90;;;;;;6257337;28;20041;-74
2020/12/09 07:02:04;;;;;;;4.25;2.25;;;7.00;65.00;;;;;;6256600;28;20063;-74
2020/12/09 07:05:06;;;;;;;3.92;2.55;;;7.00;65.00;;;;;;6245314;28;20053;-72
2020/12/09 07:08:07;;;;;;;6.95;3.22;;;7.00;64.90;;;;;;6259932;28;20037;-73
2020/12/09 07:11:08;;;;;;;7.82;3.65;;;7.00;64.70;;;;;;6260935;28;20116;-73
2020/12/09 07:14:09;;;;;;;6.00;3.20;;;7.00;64.70;;;;;;6247683;28;20037;-73
2020/12/09 07:17:12;;;;;;;7.43;4.00;;;7.10;64.50;;;;;;6234142;28;20033;-72
2020/12/09 07:20:12;;;;;;;6.90;2.97;;;7.10;64.10;;;;;;6234291;28;20044;-72
2020/12/09 07:23:18;;;;;;;11.80;3.90;;;7.10;64.00;;;;;;6231586;28;20026;-79
2020/12/09 07:26:19;;;;;;;8.88;3.58;;;7.10;63.80;;;;;;6184834;28;20052;-75
2020/12/09 07:29:33;;;;;;;4.80;2.95;;;7.20;63.60;;;;;;6241109;28;20120;-76
2020/12/09 07:32:38;;;;;;;10.05;3.72;;;7.20;63.60;;;;;;6260486;28;20163;-74
2020/12/09 07:35:39;;;;;;;9.68;3.55;;;7.20;63.40;;;;;;6255807;28;20536;-75
2020/12/09 07:38:44;;;;;;;7.45;3.33;;;7.20;63.30;;;;;;6259703;28;20033;-75
2020/12/09 07:41:45;;;;;;;6.30;3.00;;;7.30;63.30;;;;;;6261156;28;20462;-75
2020/12/09 07:44:47;;;;;;;7.43;3.53;;;7.40;63.10;;;;;;6256960;28;20180;-75
2020/12/09 07:47:48;;;;;;;8.23;3.55;;;7.40;63.70;;;;;;6244141;28;20045;-74
2020/12/09 07:50:51;;;;;;;3.72;2.72;;;7.50;62.70;;;;;;6252422;28;20042;-77
2020/12/09 07:53:52;;;;;;;8.98;3.15;;;7.50;62.10;;;;;;6255659;28;20049;-76
2020/12/09 07:56:53;;;;;;;9.18;3.50;;;7.50;61.80;;;;;;6260357;28;20040;-76
2020/12/09 07:59:55;;;;;;;6.05;3.47;;;7.60;61.60;;;;;;6261198;28;20037;-73
2020/12/09 08:02:56;;;;;;;8.45;4.15;;;7.60;61.90;;;;;;6256186;28;20033;-74
2020/12/09 08:05:57;;;;;;;5.10;3.20;;;7.60;62.20;;;;;;6256322;28;20103;-75
2020/12/09 08:26:06;;;;;;;5.10;2.55;;;7.70;60.60;;;;;;6256908;28;20367;-73
2020/12/09 08:29:15;;;;;;;4.30;2.38;;;7.60;60.10;;;;;;6260121;28;20363;-73
2020/12/09 08:32:16;;;;;;;5.00;2.85;;;7.70;59.90;;;;;;6215439;28;20116;-73
2020/12/09 08:35:17;;;;;;;7.57;2.80;;;7.70;59.70;;;;;;6227221;28;20124;-75
2020/12/09 08:38:31;;;;;;;6.03;3.33;;;7.70;59.70;;;;;;6250896;28;20033;-74
2020/12/09 08:41:34;;;;;;;9.80;3.35;;;7.70;59.50;;;;;;6253865;28;20064;-74
2020/12/09 08:44:35;;;;;;;5.65;2.60;;;7.70;59.40;;;;;;6252491;28;20088;-76
2020/12/09 08:47:36;;;;;;;7.07;3.75;;;7.80;59.20;;;;;;6253570;28;20033;-75
2020/12/09 08:50:37;;;;;;;9.35;3.60;;;7.80;59.30;;;;;;6221261;28;20045;-77
2020/12/09 08:53:38;;;;;;;8.15;4.13;;;7.80;59.50;;;;;;6251435;28;20097;-75
2020/12/09 08:56:39;;;;;;;5.18;3.45;;;7.80;59.60;;;;;;6234185;28;20470;-74
2020/12/09 08:59:40;;;;;;;7.30;3.80;;;7.80;59.60;;;;;;6251800;28;20471;-76
2020/12/09 09:02:43;;;;;;;6.78;3.17;;;7.80;59.30;;;;;;6265628;28;20030;-75
2020/12/09 09:05:46;;;;;;;7.15;3.60;;;7.70;59.40;;;;;;6227282;28;20037;-77
2020/12/09 09:08:47;;;;;;;6.20;3.90;;;7.70;59.70;;;;;;6232260;28;20057;-76
2020/12/09 09:11:48;;;;;;;6.30;3.10;;;7.70;59.50;;;;;;6230274;28;20055;-76
2020/12/09 09:14:49;;;;;;;6.32;3.65;;;7.70;59.30;;;;;;6225930;28;20092;-76
2020/12/09 09:17:50;;;;;;;6.68;3.53;;;7.70;59.00;;;;;;6235353;28;20094;-76
2020/12/09 09:20:53;;;;;;;5.35;3.03;;;7.80;58.70;;;;;;6251409;28;20047;-77
2020/12/09 09:23:54;;;;;;;6.68;3.25;;;7.80;58.60;;;;;;6234335;28;20467;-77
2020/12/09 09:26:55;;;;;;;6.95;3.85;;;7.80;58.50;;;;;;6257740;28;20040;-77
2020/12/09 09:29:56;;;;;;;12.07;5.55;;;7.80;58.50;;;;;;6249179;28;21038;-76
2020/12/09 09:32:57;;;;;;;9.15;4.28;;;7.80;58.40;;;;;;6245922;28;20360;-76
2020/12/09 09:35:58;;;;;;;10.45;4.75;;;7.80;58.40;;;;;;6253041;28;20071;-76
2020/12/09 09:38:59;;;;;;;10.82;4.15;;;7.80;58.40;;;;;;6223481;28;20048;-77
2020/12/09 09:42:00;;;;;;;8.07;3.58;;;7.80;58.30;;;;;;6212781;28;20052;-76
2020/12/09 09:45:03;;;;;;;10.02;3.63;;;7.90;58.00;;;;;;6223420;28;20038;-77
2020/12/09 09:48:03;;;;;;;6.80;2.88;;;8.00;57.90;;;;;;6217777;28;20092;-78
2020/12/09 09:51:04;;;;;;;14.85;4.95;;;8.00;57.70;;;;;;6204604;28;20407;-78
2020/12/09 09:54:05;;;;;;;5.07;2.85;;;8.10;57.50;;;;;;6226673;28;20037;-77
2020/12/09 09:57:06;;;;;;;8.18;4.32;;;8.00;57.30;;;;;;6225853;28;20108;-77
2020/12/09 10:00:07;;;;;;;7.25;3.60;;;8.10;57.10;;;;;;6220738;28;20091;-76
2020/12/09 10:03:13;;;;;;;11.45;4.55;;;8.20;57.20;;;;;;6257648;28;20416;-77
2020/12/09 10:06:13;;;;;;;11.20;4.13;;;8.30;57.10;;;;;;6251301;28;20116;-77
2020/12/09 10:09:14;;;;;;;9.57;4.63;;;8.40;57.00;;;;;;6252279;28;20041;-75
2020/12/09 10:12:15;;;;;;;11.27;4.85;;;8.50;56.70;;;;;;6225990;28;20038;-77
2020/12/09 10:15:16;;;;;;;8.10;3.90;;;8.50;56.50;;;;;;6243780;28;20057;-77
2020/12/09 10:18:17;;;;;;;9.15;4.45;;;8.60;56.30;;;;;;6251412;28;20042;-77
2020/12/09 10:21:24;;;;;;;4.38;2.83;;;8.60;56.30;;;;;;6241647;28;20033;-77
2020/12/09 10:24:25;;;;;;;9.02;4.18;;;8.60;56.30;;;;;;6232276;28;20033;-76
2020/12/09 10:27:26;;;;;;;13.85;4.35;;;8.60;55.90;;;;;;6212953;28;20049;-77
2020/12/09 10:30:27;;;;;;;8.52;3.95;;;8.60;55.80;;;;;;6242973;28;20045;-77
2020/12/09 10:33:27;;;;;;;8.15;3.58;;;8.60;55.70;;;;;;6249785;28;20044;-78
2020/12/09 10:36:28;;;;;;;5.85;3.70;;;8.60;56.00;;;;;;6244384;28;20481;-75
2020/12/09 10:39:29;;;;;;;8.40;4.30;;;8.60;55.30;;;;;;6251151;28;20040;-74
2020/12/09 10:42:30;;;;;;;10.50;5.32;;;8.50;55.50;;;;;;6209814;28;20619;-77
2020/12/09 10:45:31;;;;;;;9.98;3.55;;;8.60;55.70;;;;;;6225840;28;20053;-79
2020/12/09 10:48:32;;;;;;;6.75;3.53;;;8.60;55.50;;;;;;6232136;28;20061;-76
2020/12/09 10:51:34;;;;;;;6.28;3.40;;;8.60;55.50;;;;;;6250267;28;20087;-75
2020/12/09 10:54:35;;;;;;;9.82;3.97;;;8.70;55.40;;;;;;6250993;28;20050;-73
2020/12/09 10:57:36;;;;;;;8.57;4.10;;;8.70;55.20;;;;;;6251130;28;20033;-73
2020/12/09 11:00:37;;;;;;;5.68;3.05;;;8.70;55.30;;;;;;6252151;28;20076;-74
2020/12/09 11:03:38;;;;;;;12.18;5.18;;;8.70;55.20;;;;;;6255482;28;20457;-73
2020/12/09 11:06:42;;;;;;;9.93;4.50;;;8.90;55.00;;;;;;6255827;28;20033;-75
2020/12/09 11:09:43;;;;;;;9.10;4.90;;;8.80;55.00;;;;;;6236001;28;20041;-74
2020/12/09 11:12:43;;;;;;;8.57;4.47;;;8.80;55.10;;;;;;6255544;28;20040;-72
2020/12/09 11:15:44;;;;;;;8.82;4.13;;;8.80;55.10;;;;;;6265823;28;20068;-75
2020/12/09 11:18:46;;;;;;;6.32;3.50;;;8.90;55.00;;;;;;6262155;28;20063;-76
2020/12/09 11:21:51;;;;;;;6.72;3.83;;;8.90;54.70;;;;;;6258716;28;20488;-74
2020/12/09 11:24:52;;;;;;;7.47;3.40;;;8.90;54.70;;;;;;6255236;28;20129;-75
2020/12/09 11:27:53;;;;;;;9.95;4.05;;;8.90;54.70;;;;;;6255285;28;20045;-75
2020/12/09 11:30:53;;;;;;;8.13;4.03;;;8.90;54.70;;;;;;6244615;28;20091;-75
2020/12/09 11:33:54;;;;;;;9.90;4.55;;;8.80;54.80;;;;;;6244107;28;20051;-77
2020/12/09 11:37:00;;;;;;;10.18;3.63;;;8.80;54.70;;;;;;6231874;28;20038;-76
2020/12/09 11:40:01;;;;;;;9.25;4.15;;;8.80;54.50;;;;;;6250522;28;20041;-75
2020/12/09 11:43:02;;;;;;;8.35;3.65;;;8.80;54.50;;;;;;6255704;28;20142;-75
2020/12/09 11:46:03;;;;;;;7.65;4.07;;;8.80;54.50;;;;;;6254407;28;20374;-75
2020/12/09 11:49:04;;;;;;;9.95;4.53;;;8.80;54.60;;;;;;6252301;28;20037;-75
2020/12/09 11:52:05;;;;;;;10.75;4.55;;;8.70;54.40;;;;;;6255229;28;20107;-74
2020/12/09 11:55:06;;;;;;;8.27;3.90;;;8.80;54.50;;;;;;6235477;28;20128;-74
2020/12/09 11:58:07;;;;;;;9.13;4.25;;;8.80;54.40;;;;;;6218080;28;20088;-75
2020/12/09 12:01:08;;;;;;;8.30;4.07;;;8.80;54.40;;;;;;6234903;28;20120;-76
2020/12/09 12:04:10;;;;;;;10.32;4.53;;;8.80;54.30;;;;;;6254424;28;20063;-74
2020/12/09 12:07:10;;;;;;;12.00;4.53;;;8.90;54.30;;;;;;6256007;28;20043;-75
2020/12/09 12:10:12;;;;;;;10.07;4.38;;;8.90;54.10;;;;;;6257103;28;20053;-76
2020/12/09 12:13:14;;;;;;;12.15;4.43;;;8.90;54.10;;;;;;6258191;28;20116;-79
2020/12/09 12:16:17;;;;;;;8.55;3.65;;;9.00;54.10;;;;;;6233802;28;20037;-75
2020/12/09 12:19:19;;;;;;;11.48;4.28;;;9.00;53.90;;;;;;6218893;28;20455;-76
2020/12/09 12:22:20;;;;;;;7.30;3.47;;;9.10;53.70;;;;;;6216187;28;20030;-75
2020/12/09 12:25:20;;;;;;;8.77;4.00;;;9.20;53.90;;;;;;6228069;28;20030;-75
2020/12/09 12:28:22;;;;;;;6.78;3.97;;;9.20;53.60;;;;;;6222073;28;20330;-75
2020/12/09 12:31:23;;;;;;;11.70;3.92;;;9.30;53.60;;;;;;6250683;28;20084;-75
2020/12/09 12:34:25;;;;;;;6.32;3.50;;;9.30;53.10;;;;;;6257363;28;20036;-76
2020/12/09 12:37:26;;;;;;;5.90;3.13;;;9.20;52.80;;;;;;6252562;28;20381;-77
2020/12/09 12:40:27;;;;;;;2.35;1.60;;;9.20;52.60;;;;;;6254447;28;20041;-77
2020/12/09 12:43:28;;;;;;;6.22;3.97;;;9.20;52.50;;;;;;6254476;28;20124;-79
2020/12/09 12:46:30;;;;;;;9.32;3.58;;;9.20;52.10;;;;;;6256073;28;20107;-77
2020/12/09 12:49:32;;;;;;;7.35;3.10;;;9.20;52.20;;;;;;6253198;28;20393;-77
2020/12/09 12:52:35;;;;;;;6.10;3.15;;;9.20;52.20;;;;;;6256924;28;20129;-77
2020/12/09 12:55:38;;;;;;;7.25;3.63;;;9.20;52.00;;;;;;6232415;28;20534;-77
2020/12/09 12:58:39;;;;;;;7.90;2.80;;;9.20;52.00;;;;;;6238102;28;20102;-77
2020/12/09 13:01:39;;;;;;;9.15;4.03;;;9.20;52.10;;;;;;6254811;28;20041;-77
2020/12/09 13:04:40;;;;;;;5.18;3.00;;;9.20;52.60;;;;;;6227562;28;20048;-74
2020/12/09 13:07:42;;;;;;;5.20;3.20;;;9.10;51.70;;;;;;6235896;28;20072;-77
2020/12/09 13:10:43;;;;;;;7.60;3.10;;;9.10;51.90;;;;;;6256376;28;20743;-76
2020/12/09 13:13:47;;;;;;;8.30;3.75;;;9.10;52.00;;;;;;6244423;28;20048;-75
2020/12/09 13:16:51;;;;;;;6.18;3.03;;;9.00;52.00;;;;;;6260710;28;20072;-74
2020/12/09 13:19:52;;;;;;;7.25;3.22;;;9.00;52.10;;;;;;6254023;28;20038;-76
2020/12/09 13:22:53;;;;;;;6.65;2.90;;;9.00;51.90;;;;;;6259539;28;20037;-75
2020/12/09 13:25:54;;;;;;;5.25;2.90;;;9.00;51.90;;;;;;6249837;28;20098;-76
2020/12/09 13:28:55;;;;;;;6.47;3.28;;;9.00;52.00;;;;;;6253285;28;20040;-75
2020/12/09 13:31:55;;;;;;;5.47;3.17;;;8.90;51.90;;;;;;6256757;28;20052;-76
2020/12/09 13:34:57;;;;;;;8.77;3.33;;;8.90;51.90;;;;;;6242854;28;20045;-75
2020/12/09 13:37:58;;;;;;;7.25;3.58;;;8.90;52.10;;;;;;6257957;28;20037;-75
2020/12/09 13:41:00;;;;;;;4.28;2.55;;;9.00;52.20;;;;;;6244752;28;20045;-75
2020/12/09 13:44:01;;;;;;;8.00;3.33;;;9.00;52.00;;;;;;6258315;28;20147;-76
2020/12/09 13:47:02;;;;;;;6.10;3.08;;;9.00;51.80;;;;;;6238014;28;20438;-75
2020/12/09 13:50:07;;;;;;;6.22;3.30;;;9.00;51.60;;;;;;6241793;28;20053;-75
2020/12/09 13:53:09;;;;;;;6.75;3.28;;;9.00;51.50;;;;;;6213666;28;20052;-77
2020/12/09 13:56:11;;;;;;;7.35;3.22;;;9.00;51.30;;;;;;6230692;28;20037;-78
2020/12/09 13:59:12;;;;;;;3.95;2.17;;;9.00;51.40;;;;;;6215642;28;20034;-75
2020/12/09 14:02:14;;;;;;;3.20;2.22;;;9.00;51.10;;;;;;6224163;28;20120;-77
2020/12/09 14:05:17;;;;;;;5.22;2.58;;;9.00;50.50;;;;;;6248254;28;20025;-78
2020/12/09 14:08:18;;;;;;;4.40;2.97;;;9.00;50.60;;;;;;6236197;28;20063;-75
2020/12/09 14:11:24;;;;;;;4.72;2.65;;;9.00;50.80;;;;;;6252862;28;20367;-77
2020/12/09 14:14:25;;;;;;;6.88;2.58;;;9.10;50.80;;;;;;6246409;28;20132;-74
2020/12/09 14:17:28;;;;;;;5.57;3.10;;;9.10;50.60;;;;;;6250048;28;20037;-75
2020/12/09 14:20:29;;;;;;;6.82;2.90;;;9.10;50.50;;;;;;6254301;28;20146;-74
2020/12/09 14:23:30;;;;;;;11.30;3.08;;;9.10;50.60;;;;;;6254895;28;20061;-77
2020/12/09 14:26:30;;;;;;;6.15;2.53;;;9.10;50.60;;;;;;6244255;28;20093;-75
2020/12/09 14:29:31;;;;;;;5.72;2.85;;;9.20;50.80;;;;;;6238079;28;20128;-75
2020/12/09 14:32:34;;;;;;;3.70;2.17;;;9.20;50.80;;;;;;6250262;28;20527;-75
2020/12/09 14:35:35;;;;;;;7.70;3.50;;;9.20;50.70;;;;;;6255970;28;20389;-75
2020/12/09 14:38:36;;;;;;;4.68;2.25;;;9.20;50.70;;;;;;6250824;28;20034;-74
2020/12/09 14:41:40;;;;;;;4.05;2.90;;;9.10;50.80;;;;;;6252858;28;20045;-74
2020/12/09 14:44:42;;;;;;;6.10;3.42;;;9.10;50.80;;;;;;6262134;28;20040;-74
2020/12/09 14:47:43;;;;;;;4.60;2.45;;;9.10;50.90;;;;;;6256342;28;20132;-72
2020/12/09 14:50:44;;;;;;;4.85;2.08;;;9.10;51.10;;;;;;6228264;28;20104;-73
2020/12/09 14:53:53;;;;;;;4.57;2.35;;;9.10;51.20;;;;;;6255552;28;20076;-74
2020/12/09 14:56:55;;;;;;;4.70;2.75;;;9.10;50.70;;;;;;6273013;28;20033;-74
2020/12/09 14:59:56;;;;;;;5.45;2.72;;;9.10;50.60;;;;;;6230151;28;20129;-76
2020/12/09 15:03:03;;;;;;;6.60;2.67;;;9.10;50.70;;;;;;6230273;28;20029;-76
2020/12/09 15:06:04;;;;;;;5.13;2.90;;;9.20;50.80;;;;;;6250080;28;20048;-75
2020/12/09 15:09:05;;;;;;;3.35;2.13;;;9.20;50.90;;;;;;6254888;28;20366;-77
2020/12/09 15:12:06;;;;;;;3.28;1.95;;;9.20;50.80;;;;;;6237719;28;20124;-77
2020/12/09 15:15:07;;;;;;;5.40;2.47;;;9.20;50.60;;;;;;6259590;28;20409;-77
2020/12/09 15:18:07;;;;;;;6.32;2.80;;;9.20;50.80;;;;;;6240963;28;20047;-75
2020/12/09 15:21:09;;;;;;;6.82;2.53;;;9.20;50.80;;;;;;6252688;28;20041;-74
2020/12/09 15:24:12;;;;;;;4.40;2.08;;;9.20;50.80;;;;;;6238550;28;20466;-75
2020/12/09 15:27:14;;;;;;;3.53;2.67;;;9.20;50.70;;;;;;6258431;28;20103;-76
2020/12/09 15:30:15;;;;;;;10.30;3.55;;;9.20;50.70;;;;;;6256590;28;20037;-77
2020/12/09 15:33:16;;;;;;;16.02;5.47;;;9.20;50.60;;;;;;6236597;28;20042;-76
2020/12/09 15:36:23;;;;;;;6.05;2.70;;;9.20;50.80;;;;;;6233726;28;20065;-76
2020/12/09 15:39:24;;;;;;;6.95;3.33;;;9.10;50.80;;;;;;6229954;28;20030;-74
2020/12/09 15:42:26;;;;;;;3.55;2.50;;;9.20;51.00;;;;;;6216982;28;20044;-77
2020/12/09 15:45:27;;;;;;;5.03;2.88;;;9.20;50.80;;;;;;6230699;28;20445;-76
2020/12/09 15:48:29;;;;;;;5.88;2.58;;;9.20;50.80;;;;;;6234534;28;20205;-75
2020/12/09 15:51:30;;;;;;;4.30;2.20;;;9.10;50.80;;;;;;6233682;28;20431;-75
2020/12/09 15:54:31;;;;;;;6.90;2.40;;;9.20;50.70;;;;;;6235823;28;20104;-74
2020/12/09 15:57:33;;;;;;;5.95;2.90;;;9.10;50.70;;;;;;6235818;28;20042;-76
2020/12/09 16:00:33;;;;;;;4.07;2.20;;;9.20;50.70;;;;;;6218389;28;20048;-75
2020/12/09 16:03:35;;;;;;;4.68;2.30;;;9.20;50.60;;;;;;6253174;28;20049;-74
2020/12/09 16:06:36;;;;;;;4.38;2.50;;;9.10;50.50;;;;;;6238690;28;20029;-74
2020/12/09 16:09:37;;;;;;;4.45;2.05;;;9.20;50.60;;;;;;6224404;28;20033;-74
2020/12/09 16:12:39;;;;;;;6.55;2.45;;;9.10;50.60;;;;;;6222993;28;20120;-74
2020/12/09 16:15:40;;;;;;;4.95;2.42;;;9.10;50.70;;;;;;6230247;28;20041;-75
2020/12/09 16:18:41;;;;;;;7.35;3.13;;;9.10;50.80;;;;;;6218889;28;20351;-74
2020/12/09 16:21:46;;;;;;;6.70;3.33;;;9.10;50.90;;;;;;6214332;28;20037;-77